Terminal Aerodrome Forecast
Issued by NWS

Home | Current Version | Previous Version | Text Only | Print | Product List | Glossary On
Versions: 1 2 3 4 5 6 7 8 9 10 11 12 13 14 15 16 17 18 19 20 21 22 23 24 25 26 27 28
000
FTPA31 PHFO 191524 AAF
TAFHJR
TAF AMD
PHJR 191524Z 1915/2012 VRB05KT P6SM VCSH SCT023 BKN040
      TEMPO 1915/1917 -SHRA BKN025 BKN040
     FM191900 15008KT P6SM VCSH SCT023 BKN045
     FM192300 17010G18KT P6SM VCSH FEW023 SCT045
     FM200400 15007KT P6SM VCSH FEW023 SCT045=

USA.gov is the U.S. government's official web portal to all federal, state and local government web resources and services.